Pagrindinis puslapis
METAR-TAF:

METAR-TAF

Oro uostai :

Wadi ad-Dawasir, Saudo Arabija

platuma: 20-30N, ilguma: 045-12E, Aukštis: 624 m

Dabartinis oras

Ataskaita buvo paskelbta 47 minutes, ne 13:00 UTC
Vėjas 10 kt iš Šiaurės
Temperatūra 45°C
Drėgmė 13%
Slėgis 1000 hPa
Matomumas 10 km arba daugiau
nėra debesų žemiau 1500 m ir nėra kamuolinių lietaus debesų

METAR: OEWD 181300Z 36010KT CAVOK 45/10 Q1000 NOSIG

Laikas: 16:47 (13:47 UTC)

Prognozė

Ataskaita buvo paskelbta 2 valandos ir 47 minutes, ne 11:00 UTC
Prognozė galioja nuo 18 metu 12 UTC su 19 metu 18 UTC
Vėjas 12 kt iš Šiaurės
Matomumas: 6000 m
Mažai debesys ne aukštis 4000 ft
Tikimybė 30% :
Laikinai
nuo 18 metu 12 UTC su 18 metu 20 UTC
Matomumas: 2000 m
Mažai debesys ne aukštis 3500 ft, Liūtiniai kamuoliniai debesys.
Dulkes pustymas
Tapsmas
nuo 18 metu 18 UTC su 18 metu 20 UTC
Vėjas 10 kt iš Rytų
Tapsmas
nuo 19 metu 02 UTC su 19 metu 04 UTC
Vėjas 10 kt iš Vakarų

TAF: OEWD 181100Z 1812/1918 01012KT 6000 FEW040 PROB30 TEMPO 1812/1820 2000 BLDU FEW035CB BECMG 1818/1820 09010KT BECMG 1902/1904 27010KT

Orai ataskaitas ir orų prognozės (METAR, TAF).

turimą stotys yra geltonos ir raudonos taškus žemėlapyje.

Perkelti pele per norėdami pamatyti stoties vardą.

Tada spustelėkite, norėdami matyti oro stebėjimo ir prognozės.

Norėdami pakeisti žemėlapį: spustelėkite ant žalios mygtukų su juodo kryžiaus žemyn,; žalią mygtuką su brūkšneliu, jei norite nutolinti; arba žalių rodyklių gretimoms žemėlapius.


METAR-TAF: